sensor_id;sensor_type;location;lat;lon;timestamp;temperature;humidity
2260;DHT22;333;48.800;9.530;2023-04-25T00:01:03;9.10;99.60
2260;DHT22;333;48.800;9.530;2023-04-25T00:03:30;9.20;99.60
2260;DHT22;333;48.800;9.530;2023-04-25T00:05:58;9.10;99.60
2260;DHT22;333;48.800;9.530;2023-04-25T00:08:28;9.10;99.60
2260;DHT22;333;48.800;9.530;2023-04-25T00:10:55;9.10;99.60
2260;DHT22;333;48.800;9.530;2023-04-25T00:13:22;9.10;99.60
2260;DHT22;333;48.800;9.530;2023-04-25T00:15:51;9.10;99.60
2260;DHT22;333;48.800;9.530;2023-04-25T00:18:20;9.10;99.60
2260;DHT22;333;48.800;9.530;2023-04-25T00:20:47;9.20;99.60
2260;DHT22;333;48.800;9.530;2023-04-25T00:23:15;9.20;99.60
2260;DHT22;333;48.800;9.530;2023-04-25T00:25:44;9.20;99.60
2260;DHT22;333;48.800;9.530;2023-04-25T00:28:11;9.10;99.60
2260;DHT22;333;48.800;9.530;2023-04-25T00:30:39;9.10;99.60
2260;DHT22;333;48.800;9.530;2023-04-25T00:33:06;9.00;99.60
2260;DHT22;333;48.800;9.530;2023-04-25T00:35:35;9.00;99.60
2260;DHT22;333;48.800;9.530;2023-04-25T00:38:02;9.00;99.60
2260;DHT22;333;48.800;9.530;2023-04-25T00:40:29;8.90;99.60
2260;DHT22;333;48.800;9.530;2023-04-25T00:42:56;8.90;99.60
2260;DHT22;333;48.800;9.530;2023-04-25T00:45:27;8.90;99.60
2260;DHT22;333;48.800;9.530;2023-04-25T00:47:56;8.90;99.60
2260;DHT22;333;48.800;9.530;2023-04-25T00:50:23;8.90;99.60
2260;DHT22;333;48.800;9.530;2023-04-25T00:52:52;8.90;99.60
2260;DHT22;333;48.800;9.530;2023-04-25T00:55:19;8.90;99.60
2260;DHT22;333;48.800;9.530;2023-04-25T00:57:47;8.80;99.60
2260;DHT22;333;48.800;9.530;2023-04-25T01:00:14;8.70;99.60
2260;DHT22;333;48.800;9.530;2023-04-25T01:02:42;8.80;99.60
2260;DHT22;333;48.800;9.530;2023-04-25T01:05:10;8.80;99.60
2260;DHT22;333;48.800;9.530;2023-04-25T01:07:37;8.80;99.60
2260;DHT22;333;48.800;9.530;2023-04-25T01:10:07;8.70;99.60
2260;DHT22;333;48.800;9.530;2023-04-25T01:12:35;8.60;99.60
2260;DHT22;333;48.800;9.530;2023-04-25T01:15:02;8.50;99.60
2260;DHT22;333;48.800;9.530;2023-04-25T01:17:29;8.40;99.60
2260;DHT22;333;48.800;9.530;2023-04-25T01:19:57;8.60;99.60
2260;DHT22;333;48.800;9.530;2023-04-25T01:22:25;8.50;99.60
2260;DHT22;333;48.800;9.530;2023-04-25T01:24:53;8.60;99.60
2260;DHT22;333;48.800;9.530;2023-04-25T01:27:21;8.60;99.60
2260;DHT22;333;48.800;9.530;2023-04-25T01:29:49;8.70;99.60
2260;DHT22;333;48.800;9.530;2023-04-25T01:32:17;8.50;99.60
2260;DHT22;333;48.800;9.530;2023-04-25T01:34:44;8.50;99.60
2260;DHT22;333;48.800;9.530;2023-04-25T01:37:12;8.40;99.60
2260;DHT22;333;48.800;9.530;2023-04-25T01:39:40;8.30;99.60
2260;DHT22;333;48.800;9.530;2023-04-25T01:42:08;8.30;99.60
2260;DHT22;333;48.800;9.530;2023-04-25T01:44:35;8.40;99.60
2260;DHT22;333;48.800;9.530;2023-04-25T01:47:02;8.50;99.60
2260;DHT22;333;48.800;9.530;2023-04-25T01:49:29;8.60;99.60
2260;DHT22;333;48.800;9.530;2023-04-25T01:51:56;8.70;99.60
2260;DHT22;333;48.800;9.530;2023-04-25T01:54:23;8.70;99.60
2260;DHT22;333;48.800;9.530;2023-04-25T01:56:52;8.70;99.60
2260;DHT22;333;48.800;9.530;2023-04-25T01:59:19;8.60;99.60
2260;DHT22;333;48.800;9.530;2023-04-25T02:01:47;8.50;99.60
2260;DHT22;333;48.800;9.530;2023-04-25T02:04:14;8.50;99.60
2260;DHT22;333;48.800;9.530;2023-04-25T02:06:41;8.40;99.60
2260;DHT22;333;48.800;9.530;2023-04-25T02:09:08;8.40;99.60
2260;DHT22;333;48.800;9.530;2023-04-25T02:11:35;8.40;99.60
2260;DHT22;333;48.800;9.530;2023-04-25T02:14:04;8.30;99.60
2260;DHT22;333;48.800;9.530;2023-04-25T02:16:31;8.40;99.60
2260;DHT22;333;48.800;9.530;2023-04-25T02:18:58;8.40;99.60
2260;DHT22;333;48.800;9.530;2023-04-25T02:21:25;8.50;99.60
2260;DHT22;333;48.800;9.530;2023-04-25T02:23:53;8.40;99.60
2260;DHT22;333;48.800;9.530;2023-04-25T02:26:20;8.30;99.60
2260;DHT22;333;48.800;9.530;2023-04-25T02:28:48;8.40;99.60
2260;DHT22;333;48.800;9.530;2023-04-25T02:31:16;8.40;99.60
2260;DHT22;333;48.800;9.530;2023-04-25T02:33:44;8.40;99.60
2260;DHT22;333;48.800;9.530;2023-04-25T02:36:11;8.40;99.60
2260;DHT22;333;48.800;9.530;2023-04-25T02:38:38;8.40;99.60
2260;DHT22;333;48.800;9.530;2023-04-25T02:41:05;8.40;99.60
2260;DHT22;333;48.800;9.530;2023-04-25T02:43:32;8.30;99.60
2260;DHT22;333;48.800;9.530;2023-04-25T02:46:00;8.30;99.60
2260;DHT22;333;48.800;9.530;2023-04-25T02:48:28;8.20;99.60
2260;DHT22;333;48.800;9.530;2023-04-25T02:50:55;8.10;99.60
2260;DHT22;333;48.800;9.530;2023-04-25T02:53:22;8.00;99.60
2260;DHT22;333;48.800;9.530;2023-04-25T02:55:49;8.00;99.60
2260;DHT22;333;48.800;9.530;2023-04-25T02:58:18;7.90;99.60
2260;DHT22;333;48.800;9.530;2023-04-25T03:00:45;7.90;99.60
2260;DHT22;333;48.800;9.530;2023-04-25T03:03:12;7.80;99.60
2260;DHT22;333;48.800;9.530;2023-04-25T03:05:41;7.80;99.60
2260;DHT22;333;48.800;9.530;2023-04-25T03:08:09;7.90;99.60
2260;DHT22;333;48.800;9.530;2023-04-25T03:10:36;7.80;99.60
2260;DHT22;333;48.800;9.530;2023-04-25T03:13:03;7.90;99.60
2260;DHT22;333;48.800;9.530;2023-04-25T03:15:30;7.80;99.60
2260;DHT22;333;48.800;9.530;2023-04-25T03:17:57;8.00;99.60
2260;DHT22;333;48.800;9.530;2023-04-25T03:20:24;7.90;99.60
2260;DHT22;333;48.800;9.530;2023-04-25T03:22:52;7.90;99.60
2260;DHT22;333;48.800;9.530;2023-04-25T03:25:19;7.90;99.60
2260;DHT22;333;48.800;9.530;2023-04-25T03:27:47;7.80;99.60
2260;DHT22;333;48.800;9.530;2023-04-25T03:30:14;8.00;99.60
2260;DHT22;333;48.800;9.530;2023-04-25T03:32:41;8.10;99.60
2260;DHT22;333;48.800;9.530;2023-04-25T03:35:08;8.20;99.60
2260;DHT22;333;48.800;9.530;2023-04-25T03:37:35;8.30;99.60
2260;DHT22;333;48.800;9.530;2023-04-25T03:40:05;8.20;99.60
2260;DHT22;333;48.800;9.530;2023-04-25T03:42:32;8.20;99.60
2260;DHT22;333;48.800;9.530;2023-04-25T03:44:59;8.30;99.60
2260;DHT22;333;48.800;9.530;2023-04-25T03:47:26;8.30;99.60
2260;DHT22;333;48.800;9.530;2023-04-25T03:49:53;8.30;99.60
2260;DHT22;333;48.800;9.530;2023-04-25T03:52:20;8.20;99.60
2260;DHT22;333;48.800;9.530;2023-04-25T03:54:47;8.20;99.60
2260;DHT22;333;48.800;9.530;2023-04-25T03:57:15;8.20;99.60
2260;DHT22;333;48.800;9.530;2023-04-25T03:59:42;8.20;99.60
2260;DHT22;333;48.800;9.530;2023-04-25T04:02:10;8.10;99.60
2260;DHT22;333;48.800;9.530;2023-04-25T04:04:38;8.10;99.60
2260;DHT22;333;48.800;9.530;2023-04-25T04:07:05;8.10;99.60
2260;DHT22;333;48.800;9.530;2023-04-25T04:09:32;8.10;99.60
2260;DHT22;333;48.800;9.530;2023-04-25T04:11:59;8.10;99.60
2260;DHT22;333;48.800;9.530;2023-04-25T04:14:28;8.10;99.60
2260;DHT22;333;48.800;9.530;2023-04-25T04:16:55;8.20;99.60
2260;DHT22;333;48.800;9.530;2023-04-25T04:19:23;8.30;99.60
2260;DHT22;333;48.800;9.530;2023-04-25T04:21:50;8.30;99.60
2260;DHT22;333;48.800;9.530;2023-04-25T04:24:17;8.20;99.60
2260;DHT22;333;48.800;9.530;2023-04-25T04:26:44;8.30;99.60
2260;DHT22;333;48.800;9.530;2023-04-25T04:29:11;8.40;99.60
2260;DHT22;333;48.800;9.530;2023-04-25T04:31:47;8.40;99.60
2260;DHT22;333;48.800;9.530;2023-04-25T04:34:15;8.40;99.60
2260;DHT22;333;48.800;9.530;2023-04-25T04:36:43;8.40;99.60
2260;DHT22;333;48.800;9.530;2023-04-25T04:39:12;8.50;99.60
2260;DHT22;333;48.800;9.530;2023-04-25T04:41:39;8.50;99.60
2260;DHT22;333;48.800;9.530;2023-04-25T04:44:06;8.40;99.60
2260;DHT22;333;48.800;9.530;2023-04-25T04:46:34;8.30;99.60
2260;DHT22;333;48.800;9.530;2023-04-25T04:49:08;8.40;99.60
2260;DHT22;333;48.800;9.530;2023-04-25T04:51:36;8.40;99.60
2260;DHT22;333;48.800;9.530;2023-04-25T04:54:03;8.40;99.60
2260;DHT22;333;48.800;9.530;2023-04-25T04:56:31;8.40;99.60
2260;DHT22;333;48.800;9.530;2023-04-25T04:58:58;8.50;99.60
2260;DHT22;333;48.800;9.530;2023-04-25T05:01:27;8.70;99.60
2260;DHT22;333;48.800;9.530;2023-04-25T05:03:55;8.70;99.60
2260;DHT22;333;48.800;9.530;2023-04-25T05:06:27;8.70;99.60
2260;DHT22;333;48.800;9.530;2023-04-25T05:08:56;8.90;99.60
2260;DHT22;333;48.800;9.530;2023-04-25T05:11:23;8.90;99.60
2260;DHT22;333;48.800;9.530;2023-04-25T05:13:52;8.80;99.60
2260;DHT22;333;48.800;9.530;2023-04-25T05:16:19;8.70;99.60
2260;DHT22;333;48.800;9.530;2023-04-25T05:18:47;8.70;99.60
2260;DHT22;333;48.800;9.530;2023-04-25T05:21:14;8.80;99.60
2260;DHT22;333;48.800;9.530;2023-04-25T05:23:43;8.80;99.60
2260;DHT22;333;48.800;9.530;2023-04-25T05:26:10;8.90;99.60
2260;DHT22;333;48.800;9.530;2023-04-25T05:28:39;8.90;99.60
2260;DHT22;333;48.800;9.530;2023-04-25T05:31:07;8.90;99.60
2260;DHT22;333;48.800;9.530;2023-04-25T05:33:34;8.90;99.60
2260;DHT22;333;48.800;9.530;2023-04-25T05:36:01;8.90;99.60
2260;DHT22;333;48.800;9.530;2023-04-25T05:38:28;9.00;99.60
2260;DHT22;333;48.800;9.530;2023-04-25T05:40:57;9.20;99.60
2260;DHT22;333;48.800;9.530;2023-04-25T05:43:24;9.40;99.60
2260;DHT22;333;48.800;9.530;2023-04-25T05:45:51;9.50;99.60
2260;DHT22;333;48.800;9.530;2023-04-25T05:48:18;9.50;99.60
2260;DHT22;333;48.800;9.530;2023-04-25T05:50:45;9.50;99.60
2260;DHT22;333;48.800;9.530;2023-04-25T05:53:12;9.50;99.60
2260;DHT22;333;48.800;9.530;2023-04-25T05:55:39;9.50;99.60
2260;DHT22;333;48.800;9.530;2023-04-25T05:58:08;9.50;99.60
2260;DHT22;333;48.800;9.530;2023-04-25T06:00:35;9.60;99.60
2260;DHT22;333;48.800;9.530;2023-04-25T06:03:03;9.70;99.60
2260;DHT22;333;48.800;9.530;2023-04-25T06:05:30;9.80;99.60
2260;DHT22;333;48.800;9.530;2023-04-25T06:07:57;9.80;99.60
2260;DHT22;333;48.800;9.530;2023-04-25T06:10:25;9.70;99.60
2260;DHT22;333;48.800;9.530;2023-04-25T06:12:53;9.60;99.60
2260;DHT22;333;48.800;9.530;2023-04-25T06:15:21;9.70;99.60
2260;DHT22;333;48.800;9.530;2023-04-25T06:17:48;9.90;99.60
2260;DHT22;333;48.800;9.530;2023-04-25T06:20:15;9.80;99.60
2260;DHT22;333;48.800;9.530;2023-04-25T06:22:42;9.90;99.60
2260;DHT22;333;48.800;9.530;2023-04-25T06:25:09;10.00;99.60
2260;DHT22;333;48.800;9.530;2023-04-25T06:27:36;9.90;99.60
2260;DHT22;333;48.800;9.530;2023-04-25T06:30:04;9.70;99.60
2260;DHT22;333;48.800;9.530;2023-04-25T06:32:33;9.30;99.60
2260;DHT22;333;48.800;9.530;2023-04-25T06:35:01;9.10;99.60
2260;DHT22;333;48.800;9.530;2023-04-25T06:37:31;9.00;99.60
2260;DHT22;333;48.800;9.530;2023-04-25T06:39:58;8.90;99.60
2260;DHT22;333;48.800;9.530;2023-04-25T06:42:25;8.90;99.60
2260;DHT22;333;48.800;9.530;2023-04-25T06:44:52;8.90;99.60
2260;DHT22;333;48.800;9.530;2023-04-25T06:47:19;9.00;99.60
2260;DHT22;333;48.800;9.530;2023-04-25T06:49:47;9.20;99.60
2260;DHT22;333;48.800;9.530;2023-04-25T06:52:14;9.30;99.60
2260;DHT22;333;48.800;9.530;2023-04-25T06:54:43;9.30;99.60
2260;DHT22;333;48.800;9.530;2023-04-25T06:57:10;9.50;99.60
2260;DHT22;333;48.800;9.530;2023-04-25T06:59:37;9.60;99.60
2260;DHT22;333;48.800;9.530;2023-04-25T07:02:05;9.70;99.60
2260;DHT22;333;48.800;9.530;2023-04-25T07:04:32;9.90;99.60
2260;DHT22;333;48.800;9.530;2023-04-25T07:07:01;10.00;99.60
2260;DHT22;333;48.800;9.530;2023-04-25T07:09:29;10.00;99.60
2260;DHT22;333;48.800;9.530;2023-04-25T07:11:59;10.30;99.60
2260;DHT22;333;48.800;9.530;2023-04-25T07:14:27;10.40;99.60
2260;DHT22;333;48.800;9.530;2023-04-25T07:16:54;10.60;99.60
2260;DHT22;333;48.800;9.530;2023-04-25T07:19:21;10.70;99.60
2260;DHT22;333;48.800;9.530;2023-04-25T07:21:49;10.80;99.60
2260;DHT22;333;48.800;9.530;2023-04-25T07:24:18;10.70;99.60
2260;DHT22;333;48.800;9.530;2023-04-25T07:26:45;10.80;99.60
2260;DHT22;333;48.800;9.530;2023-04-25T07:29:13;10.70;99.60
2260;DHT22;333;48.800;9.530;2023-04-25T07:31:40;10.60;99.60
2260;DHT22;333;48.800;9.530;2023-04-25T07:34:08;10.80;99.60
2260;DHT22;333;48.800;9.530;2023-04-25T07:36:35;10.80;99.60
2260;DHT22;333;48.800;9.530;2023-04-25T07:39:03;10.70;99.60
2260;DHT22;333;48.800;9.530;2023-04-25T07:41:31;10.50;99.60
2260;DHT22;333;48.800;9.530;2023-04-25T07:43:58;10.30;99.60
2260;DHT22;333;48.800;9.530;2023-04-25T07:46:25;10.00;99.60
2260;DHT22;333;48.800;9.530;2023-04-25T07:48:52;10.00;99.60
2260;DHT22;333;48.800;9.530;2023-04-25T07:51:20;10.00;99.60
2260;DHT22;333;48.800;9.530;2023-04-25T07:53:47;10.10;99.60
2260;DHT22;333;48.800;9.530;2023-04-25T07:56:14;10.10;99.60
2260;DHT22;333;48.800;9.530;2023-04-25T07:58:43;10.20;99.60
2260;DHT22;333;48.800;9.530;2023-04-25T08:01:10;10.20;99.60
2260;DHT22;333;48.800;9.530;2023-04-25T08:03:37;10.10;99.60
2260;DHT22;333;48.800;9.530;2023-04-25T08:06:05;10.00;99.60
2260;DHT22;333;48.800;9.530;2023-04-25T08:08:32;9.90;99.60
2260;DHT22;333;48.800;9.530;2023-04-25T08:10:59;9.80;99.60
2260;DHT22;333;48.800;9.530;2023-04-25T08:13:26;9.80;99.60
2260;DHT22;333;48.800;9.530;2023-04-25T08:15:54;9.70;99.60
2260;DHT22;333;48.800;9.530;2023-04-25T08:18:22;9.60;99.60
2260;DHT22;333;48.800;9.530;2023-04-25T08:20:49;9.50;99.60
2260;DHT22;333;48.800;9.530;2023-04-25T08:23:16;9.40;99.60
2260;DHT22;333;48.800;9.530;2023-04-25T08:25:43;9.50;99.60
2260;DHT22;333;48.800;9.530;2023-04-25T08:28:10;9.50;99.60
2260;DHT22;333;48.800;9.530;2023-04-25T08:30:37;9.70;99.60
2260;DHT22;333;48.800;9.530;2023-04-25T08:33:06;9.80;99.60
2260;DHT22;333;48.800;9.530;2023-04-25T08:35:33;9.70;99.60
2260;DHT22;333;48.800;9.530;2023-04-25T08:38:00;9.70;99.60
2260;DHT22;333;48.800;9.530;2023-04-25T08:40:28;9.70;99.60
2260;DHT22;333;48.800;9.530;2023-04-25T08:42:57;9.70;99.60
2260;DHT22;333;48.800;9.530;2023-04-25T08:45:26;9.60;99.60
2260;DHT22;333;48.800;9.530;2023-04-25T08:47:56;9.60;99.60
2260;DHT22;333;48.800;9.530;2023-04-25T08:50:25;9.50;99.60
2260;DHT22;333;48.800;9.530;2023-04-25T08:52:54;9.30;99.60
2260;DHT22;333;48.800;9.530;2023-04-25T08:55:23;9.30;99.60
2260;DHT22;333;48.800;9.530;2023-04-25T08:57:51;9.20;99.60
2260;DHT22;333;48.800;9.530;2023-04-25T09:00:20;9.10;99.60
2260;DHT22;333;48.800;9.530;2023-04-25T09:02:47;9.00;99.60
2260;DHT22;333;48.800;9.530;2023-04-25T09:05:14;8.90;99.60
2260;DHT22;333;48.800;9.530;2023-04-25T09:07:43;8.80;99.60
2260;DHT22;333;48.800;9.530;2023-04-25T09:10:10;8.70;99.60
2260;DHT22;333;48.800;9.530;2023-04-25T09:12:37;8.50;99.60
2260;DHT22;333;48.800;9.530;2023-04-25T09:15:06;8.20;99.60
2260;DHT22;333;48.800;9.530;2023-04-25T09:17:34;8.10;99.60
2260;DHT22;333;48.800;9.530;2023-04-25T09:20:07;8.10;99.60
2260;DHT22;333;48.800;9.530;2023-04-25T09:22:35;8.10;99.60
2260;DHT22;333;48.800;9.530;2023-04-25T09:25:08;8.20;99.60
2260;DHT22;333;48.800;9.530;2023-04-25T09:27:35;8.20;99.60
2260;DHT22;333;48.800;9.530;2023-04-25T09:30:03;8.30;99.60
2260;DHT22;333;48.800;9.530;2023-04-25T09:32:30;8.40;99.60
2260;DHT22;333;48.800;9.530;2023-04-25T09:34:58;8.40;99.60
2260;DHT22;333;48.800;9.530;2023-04-25T09:37:28;8.40;99.60
2260;DHT22;333;48.800;9.530;2023-04-25T09:39:56;8.40;99.60
2260;DHT22;333;48.800;9.530;2023-04-25T09:42:27;8.50;99.60
2260;DHT22;333;48.800;9.530;2023-04-25T09:44:58;8.60;99.60
2260;DHT22;333;48.800;9.530;2023-04-25T09:47:27;8.60;99.60
2260;DHT22;333;48.800;9.530;2023-04-25T09:49:55;8.70;99.60
2260;DHT22;333;48.800;9.530;2023-04-25T09:52:23;8.80;99.60
2260;DHT22;333;48.800;9.530;2023-04-25T09:54:51;8.80;99.60
2260;DHT22;333;48.800;9.530;2023-04-25T09:57:19;8.80;99.60
2260;DHT22;333;48.800;9.530;2023-04-25T09:59:50;8.80;99.60
2260;DHT22;333;48.800;9.530;2023-04-25T10:02:18;9.00;99.60
2260;DHT22;333;48.800;9.530;2023-04-25T10:04:50;9.00;99.60
2260;DHT22;333;48.800;9.530;2023-04-25T10:07:19;8.80;99.60
2260;DHT22;333;48.800;9.530;2023-04-25T10:09:48;8.80;99.60
2260;DHT22;333;48.800;9.530;2023-04-25T10:12:16;8.70;99.60
2260;DHT22;333;48.800;9.530;2023-04-25T10:14:44;8.70;99.60
2260;DHT22;333;48.800;9.530;2023-04-25T10:17:14;8.80;99.60
2260;DHT22;333;48.800;9.530;2023-04-25T10:19:42;8.80;99.60
2260;DHT22;333;48.800;9.530;2023-04-25T10:22:17;9.00;99.60
2260;DHT22;333;48.800;9.530;2023-04-25T10:24:46;9.00;99.60
2260;DHT22;333;48.800;9.530;2023-04-25T10:27:15;9.00;99.60
2260;DHT22;333;48.800;9.530;2023-04-25T10:29:43;8.90;99.60
2260;DHT22;333;48.800;9.530;2023-04-25T10:32:10;8.90;99.60
2260;DHT22;333;48.800;9.530;2023-04-25T10:34:40;8.90;99.60
2260;DHT22;333;48.800;9.530;2023-04-25T10:37:09;8.90;99.60
2260;DHT22;333;48.800;9.530;2023-04-25T10:39:39;8.90;99.60
2260;DHT22;333;48.800;9.530;2023-04-25T10:42:07;8.90;99.60
2260;DHT22;333;48.800;9.530;2023-04-25T10:44:37;8.80;99.60
2260;DHT22;333;48.800;9.530;2023-04-25T10:47:07;8.80;99.60
2260;DHT22;333;48.800;9.530;2023-04-25T10:49:35;8.60;99.60
2260;DHT22;333;48.800;9.530;2023-04-25T10:52:25;8.50;99.60
2260;DHT22;333;48.800;9.530;2023-04-25T10:54:54;8.50;99.60
2260;DHT22;333;48.800;9.530;2023-04-25T10:57:43;8.40;99.60
2260;DHT22;333;48.800;9.530;2023-04-25T11:00:13;8.30;99.60
2260;DHT22;333;48.800;9.530;2023-04-25T11:02:42;8.10;99.60
2260;DHT22;333;48.800;9.530;2023-04-25T11:05:11;8.10;99.60
2260;DHT22;333;48.800;9.530;2023-04-25T11:07:49;8.00;99.60
2260;DHT22;333;48.800;9.530;2023-04-25T11:10:17;7.40;99.60
2260;DHT22;333;48.800;9.530;2023-04-25T11:12:45;6.60;99.60
2260;DHT22;333;48.800;9.530;2023-04-25T11:15:12;6.10;99.60
2260;DHT22;333;48.800;9.530;2023-04-25T11:17:39;6.10;99.60
2260;DHT22;333;48.800;9.530;2023-04-25T11:20:07;6.20;99.60
2260;DHT22;333;48.800;9.530;2023-04-25T11:22:38;6.30;99.60
2260;DHT22;333;48.800;9.530;2023-04-25T11:25:09;6.50;99.60
2260;DHT22;333;48.800;9.530;2023-04-25T11:27:49;6.70;99.60
2260;DHT22;333;48.800;9.530;2023-04-25T11:30:18;6.90;99.60
2260;DHT22;333;48.800;9.530;2023-04-25T11:32:45;6.90;99.60
2260;DHT22;333;48.800;9.530;2023-04-25T11:35:13;7.00;99.60
2260;DHT22;333;48.800;9.530;2023-04-25T11:37:41;7.00;99.60
2260;DHT22;333;48.800;9.530;2023-04-25T11:40:11;7.00;99.60
2260;DHT22;333;48.800;9.530;2023-04-25T11:42:38;7.00;99.60
2260;DHT22;333;48.800;9.530;2023-04-25T11:45:06;7.00;99.60
2260;DHT22;333;48.800;9.530;2023-04-25T11:47:34;7.00;99.60
2260;DHT22;333;48.800;9.530;2023-04-25T11:50:01;7.10;99.60
2260;DHT22;333;48.800;9.530;2023-04-25T11:52:36;7.20;99.60
2260;DHT22;333;48.800;9.530;2023-04-25T11:55:05;7.20;99.60
2260;DHT22;333;48.800;9.530;2023-04-25T11:57:34;7.30;99.60
2260;DHT22;333;48.800;9.530;2023-04-25T12:00:09;7.20;99.60
2260;DHT22;333;48.800;9.530;2023-04-25T12:02:40;7.40;99.60
2260;DHT22;333;48.800;9.530;2023-04-25T12:05:08;7.40;99.60
2260;DHT22;333;48.800;9.530;2023-04-25T12:07:35;7.30;99.60
2260;DHT22;333;48.800;9.530;2023-04-25T12:10:07;7.40;99.60
2260;DHT22;333;48.800;9.530;2023-04-25T12:12:36;7.50;99.60
2260;DHT22;333;48.800;9.530;2023-04-25T12:15:11;7.70;99.60
2260;DHT22;333;48.800;9.530;2023-04-25T12:17:41;8.10;99.60
2260;DHT22;333;48.800;9.530;2023-04-25T12:20:10;8.40;99.60
2260;DHT22;333;48.800;9.530;2023-04-25T12:22:41;8.70;99.60
2260;DHT22;333;48.800;9.530;2023-04-25T12:25:10;8.90;99.60
2260;DHT22;333;48.800;9.530;2023-04-25T12:27:39;8.90;99.60
2260;DHT22;333;48.800;9.530;2023-04-25T12:30:08;8.90;99.60
2260;DHT22;333;48.800;9.530;2023-04-25T12:32:36;9.10;99.60
2260;DHT22;333;48.800;9.530;2023-04-25T12:35:05;9.40;99.60
2260;DHT22;333;48.800;9.530;2023-04-25T12:37:32;9.60;99.60
2260;DHT22;333;48.800;9.530;2023-04-25T12:39:59;9.60;99.60
2260;DHT22;333;48.800;9.530;2023-04-25T12:42:26;9.50;99.60
2260;DHT22;333;48.800;9.530;2023-04-25T12:44:55;9.40;99.60
2260;DHT22;333;48.800;9.530;2023-04-25T12:47:22;9.40;99.60
2260;DHT22;333;48.800;9.530;2023-04-25T12:49:49;9.70;99.60
2260;DHT22;333;48.800;9.530;2023-04-25T12:52:16;9.90;99.60
2260;DHT22;333;48.800;9.530;2023-04-25T12:54:43;9.90;99.60
2260;DHT22;333;48.800;9.530;2023-04-25T12:57:10;9.60;99.60
2260;DHT22;333;48.800;9.530;2023-04-25T12:59:38;9.30;99.60
2260;DHT22;333;48.800;9.530;2023-04-25T13:02:06;9.30;99.60
2260;DHT22;333;48.800;9.530;2023-04-25T13:04:33;9.20;99.60
2260;DHT22;333;48.800;9.530;2023-04-25T13:07:00;9.20;99.60
2260;DHT22;333;48.800;9.530;2023-04-25T13:09:27;9.20;99.60
2260;DHT22;333;48.800;9.530;2023-04-25T13:11:54;9.00;99.60
2260;DHT22;333;48.800;9.530;2023-04-25T13:14:23;9.20;99.60
2260;DHT22;333;48.800;9.530;2023-04-25T13:16:50;9.40;99.60
2260;DHT22;333;48.800;9.530;2023-04-25T13:19:18;9.50;99.60
2260;DHT22;333;48.800;9.530;2023-04-25T13:21:46;9.40;99.60
2260;DHT22;333;48.800;9.530;2023-04-25T13:24:12;9.70;99.60
2260;DHT22;333;48.800;9.530;2023-04-25T13:26:40;10.10;99.60
2260;DHT22;333;48.800;9.530;2023-04-25T13:29:07;10.20;99.60
2260;DHT22;333;48.800;9.530;2023-04-25T13:31:34;10.30;99.60
2260;DHT22;333;48.800;9.530;2023-04-25T13:34:01;10.30;99.60
2260;DHT22;333;48.800;9.530;2023-04-25T13:36:31;10.50;99.60
2260;DHT22;333;48.800;9.530;2023-04-25T13:38:58;11.10;99.60
2260;DHT22;333;48.800;9.530;2023-04-25T13:41:25;11.50;99.60
2260;DHT22;333;48.800;9.530;2023-04-25T13:43:52;11.40;99.60
2260;DHT22;333;48.800;9.530;2023-04-25T13:46:19;12.00;99.60
2260;DHT22;333;48.800;9.530;2023-04-25T13:48:47;12.70;99.60
2260;DHT22;333;48.800;9.530;2023-04-25T13:51:15;12.20;99.60
2260;DHT22;333;48.800;9.530;2023-04-25T13:53:44;11.30;99.60
2260;DHT22;333;48.800;9.530;2023-04-25T13:56:12;10.90;99.60
2260;DHT22;333;48.800;9.530;2023-04-25T13:58:42;10.60;99.60
2260;DHT22;333;48.800;9.530;2023-04-25T14:01:09;10.50;99.60
2260;DHT22;333;48.800;9.530;2023-04-25T14:03:36;10.80;99.60
2260;DHT22;333;48.800;9.530;2023-04-25T14:06:04;11.40;99.60
2260;DHT22;333;48.800;9.530;2023-04-25T14:08:31;12.20;99.60
2260;DHT22;333;48.800;9.530;2023-04-25T14:11:02;12.10;99.60
2260;DHT22;333;48.800;9.530;2023-04-25T14:13:29;11.60;99.60
2260;DHT22;333;48.800;9.530;2023-04-25T14:15:56;11.10;99.60
2260;DHT22;333;48.800;9.530;2023-04-25T14:18:29;10.60;99.60
2260;DHT22;333;48.800;9.530;2023-04-25T14:20:56;10.30;99.60
2260;DHT22;333;48.800;9.530;2023-04-25T14:23:23;10.20;99.60
2260;DHT22;333;48.800;9.530;2023-04-25T14:25:50;10.20;99.60
2260;DHT22;333;48.800;9.530;2023-04-25T14:28:19;10.10;99.60
2260;DHT22;333;48.800;9.530;2023-04-25T14:30:46;10.20;99.60
2260;DHT22;333;48.800;9.530;2023-04-25T14:33:14;10.50;99.60
2260;DHT22;333;48.800;9.530;2023-04-25T14:35:42;10.70;99.60
2260;DHT22;333;48.800;9.530;2023-04-25T14:38:10;10.90;99.60
2260;DHT22;333;48.800;9.530;2023-04-25T14:40:37;11.00;99.60
2260;DHT22;333;48.800;9.530;2023-04-25T14:43:04;11.70;99.60
2260;DHT22;333;48.800;9.530;2023-04-25T14:45:33;12.90;99.60
2260;DHT22;333;48.800;9.530;2023-04-25T14:48:01;14.20;99.60
2260;DHT22;333;48.800;9.530;2023-04-25T14:50:28;14.60;99.60
2260;DHT22;333;48.800;9.530;2023-04-25T14:52:55;15.00;99.60
2260;DHT22;333;48.800;9.530;2023-04-25T14:55:25;15.40;99.60
2260;DHT22;333;48.800;9.530;2023-04-25T14:57:53;14.90;99.60
2260;DHT22;333;48.800;9.530;2023-04-25T15:00:21;15.00;99.60
2260;DHT22;333;48.800;9.530;2023-04-25T15:02:49;14.30;99.60
2260;DHT22;333;48.800;9.530;2023-04-25T15:05:17;13.40;99.60
2260;DHT22;333;48.800;9.530;2023-04-25T15:07:44;12.70;99.60
2260;DHT22;333;48.800;9.530;2023-04-25T15:10:13;12.40;99.60
2260;DHT22;333;48.800;9.530;2023-04-25T15:12:41;12.60;99.60
2260;DHT22;333;48.800;9.530;2023-04-25T15:15:09;12.30;99.60
2260;DHT22;333;48.800;9.530;2023-04-25T15:17:37;12.00;99.60
2260;DHT22;333;48.800;9.530;2023-04-25T15:20:08;12.00;99.60
2260;DHT22;333;48.800;9.530;2023-04-25T15:22:35;12.30;99.60
2260;DHT22;333;48.800;9.530;2023-04-25T15:25:03;13.20;99.60
2260;DHT22;333;48.800;9.530;2023-04-25T15:27:30;13.20;99.60
2260;DHT22;333;48.800;9.530;2023-04-25T15:29:57;12.30;99.60
2260;DHT22;333;48.800;9.530;2023-04-25T15:32:24;12.30;99.60
2260;DHT22;333;48.800;9.530;2023-04-25T15:34:52;12.10;99.60
2260;DHT22;333;48.800;9.530;2023-04-25T15:37:20;11.80;99.60
2260;DHT22;333;48.800;9.530;2023-04-25T15:39:47;11.40;99.60
2260;DHT22;333;48.800;9.530;2023-04-25T15:42:14;11.30;99.60
2260;DHT22;333;48.800;9.530;2023-04-25T15:44:42;11.20;99.60
2260;DHT22;333;48.800;9.530;2023-04-25T15:47:09;11.60;99.60
2260;DHT22;333;48.800;9.530;2023-04-25T15:49:36;11.80;99.60
2260;DHT22;333;48.800;9.530;2023-04-25T15:52:03;12.10;99.60
2260;DHT22;333;48.800;9.530;2023-04-25T15:54:32;11.90;99.60
2260;DHT22;333;48.800;9.530;2023-04-25T15:56:59;11.80;99.60
2260;DHT22;333;48.800;9.530;2023-04-25T15:59:26;11.80;99.60
2260;DHT22;333;48.800;9.530;2023-04-25T16:01:53;12.00;99.60
2260;DHT22;333;48.800;9.530;2023-04-25T16:04:21;12.30;99.60
2260;DHT22;333;48.800;9.530;2023-04-25T16:06:49;12.10;99.60
2260;DHT22;333;48.800;9.530;2023-04-25T16:09:16;11.90;99.60
2260;DHT22;333;48.800;9.530;2023-04-25T16:11:45;11.70;99.60
2260;DHT22;333;48.800;9.530;2023-04-25T16:14:12;11.60;99.60
2260;DHT22;333;48.800;9.530;2023-04-25T16:16:39;11.90;99.60
2260;DHT22;333;48.800;9.530;2023-04-25T16:19:06;11.90;99.60
2260;DHT22;333;48.800;9.530;2023-04-25T16:21:33;11.60;99.60
2260;DHT22;333;48.800;9.530;2023-04-25T16:24:01;11.50;99.60
2260;DHT22;333;48.800;9.530;2023-04-25T16:26:28;11.70;99.60
2260;DHT22;333;48.800;9.530;2023-04-25T16:28:56;12.40;99.60
2260;DHT22;333;48.800;9.530;2023-04-25T16:31:24;13.70;99.60
2260;DHT22;333;48.800;9.530;2023-04-25T16:33:51;14.60;99.60